createdAt,value
2022-12-02T00:02:57.589Z,74.70
2022-12-02T00:08:33.749Z,74.75
2022-12-02T00:14:16.104Z,74.43
2022-12-02T00:19:47.329Z,74.21
2022-12-02T00:25:18.411Z,74.46
2022-12-02T00:30:49.626Z,74.35
2022-12-02T00:36:23.025Z,73.80
2022-12-02T00:41:54.475Z,74.41
2022-12-02T00:47:25.640Z,74.60
2022-12-02T00:52:56.995Z,73.96
2022-12-02T00:58:28.093Z,74.57
2022-12-02T01:03:59.615Z,74.04
2022-12-02T01:09:30.622Z,74.07
2022-12-02T01:15:02.040Z,73.85
2022-12-02T01:20:33.043Z,74.52
2022-12-02T01:26:04.281Z,73.92
2022-12-02T01:31:37.739Z,73.84
2022-12-02T01:37:09.312Z,73.83
2022-12-02T01:42:41.343Z,74.14
2022-12-02T01:48:12.556Z,73.85
2022-12-02T01:53:43.592Z,73.81
2022-12-02T01:59:16.533Z,73.98
2022-12-02T02:04:47.911Z,74.24
2022-12-02T02:10:20.527Z,73.98
2022-12-02T02:15:51.798Z,74.40
2022-12-02T02:21:27.089Z,74.14
2022-12-02T02:26:58.896Z,74.11
2022-12-02T02:32:30.929Z,73.85
2022-12-02T02:38:02.604Z,74.32
2022-12-02T02:43:34.310Z,73.81
2022-12-02T02:49:06.195Z,73.67
2022-12-02T02:54:37.600Z,74.06
2022-12-02T03:00:09.857Z,73.94
2022-12-02T03:05:41.657Z,74.05
2022-12-02T03:11:13.360Z,73.74
2022-12-02T03:16:45.453Z,73.97
2022-12-02T03:22:16.684Z,73.88
2022-12-02T03:27:47.967Z,74.53
2022-12-02T03:33:19.205Z,74.21
2022-12-02T03:38:50.609Z,73.86
2022-12-02T03:44:21.717Z,74.14
2022-12-02T03:49:52.857Z,74.10
2022-12-02T03:55:24.211Z,74.03
2022-12-02T04:00:55.514Z,73.95
2022-12-02T04:06:26.782Z,74.40
2022-12-02T04:11:57.981Z,73.93
2022-12-02T04:17:29.197Z,73.72
2022-12-02T04:23:00.249Z,73.54
2022-12-02T04:28:31.471Z,74.42
2022-12-02T04:34:02.662Z,74.19
2022-12-02T04:39:33.937Z,74.20
2022-12-02T04:45:05.709Z,74.24
2022-12-02T04:50:37.137Z,74.15
2022-12-02T04:56:08.566Z,74.28
2022-12-02T05:01:39.507Z,74.13
2022-12-02T05:07:10.727Z,74.47
2022-12-02T05:12:42.175Z,73.98
2022-12-02T05:18:13.407Z,74.16
2022-12-02T05:23:44.880Z,73.92
2022-12-02T05:29:17.437Z,73.72
2022-12-02T05:34:48.658Z,74.02
2022-12-02T05:40:20.001Z,74.23
2022-12-02T05:45:52.652Z,73.77
2022-12-02T05:51:23.921Z,73.34
2022-12-02T05:56:56.831Z,73.80
2022-12-02T06:02:40.216Z,74.01
2022-12-02T06:08:21.187Z,74.29
2022-12-02T06:13:52.352Z,74.27
2022-12-02T06:19:45.809Z,73.98
2022-12-02T06:25:26.256Z,73.68
2022-12-02T06:31:00.271Z,73.62
2022-12-02T06:36:33.646Z,74.38
2022-12-02T06:42:16.617Z,73.91
2022-12-02T06:47:51.351Z,73.71
2022-12-02T06:53:28.300Z,74.02
2022-12-02T06:59:04.765Z,73.50
2022-12-02T07:04:46.108Z,74.22
2022-12-02T07:10:20.972Z,73.84
2022-12-02T07:15:51.964Z,74.15
2022-12-02T07:21:23.391Z,73.84
2022-12-02T07:26:54.569Z,73.40
2022-12-02T07:32:25.922Z,73.67
2022-12-02T07:37:58.335Z,73.31
2022-12-02T07:43:32.504Z,72.63
2022-12-02T07:49:03.448Z,73.18
2022-12-02T07:54:34.500Z,72.76
2022-12-02T08:00:07.199Z,72.48
2022-12-02T08:05:43.293Z,73.33
2022-12-02T08:11:14.370Z,72.98
2022-12-02T08:16:45.557Z,73.06
2022-12-02T08:22:16.750Z,72.92
2022-12-02T08:27:47.822Z,72.45
2022-12-02T08:33:19.167Z,72.82
2022-12-02T08:38:50.315Z,72.73
2022-12-02T08:44:21.252Z,72.57
2022-12-02T08:49:52.326Z,72.93
2022-12-02T08:55:23.695Z,73.14
2022-12-02T09:00:54.708Z,72.25
2022-12-02T09:06:26.193Z,72.56
2022-12-02T09:11:57.132Z,72.41
2022-12-02T09:17:28.419Z,72.27
2022-12-02T09:23:01.784Z,72.95
2022-12-02T09:28:32.750Z,72.98
2022-12-02T09:34:03.998Z,72.61
2022-12-02T09:39:38.819Z,72.67
2022-12-02T09:45:12.754Z,73.08
2022-12-02T09:50:43.978Z,73.03
2022-12-02T09:56:18.479Z,73.07
2022-12-02T10:01:50.862Z,73.24
2022-12-02T10:07:22.270Z,73.39
2022-12-02T10:12:54.348Z,73.06
2022-12-02T10:18:31.126Z,73.03
2022-12-02T10:24:09.869Z,73.44
2022-12-02T10:29:40.873Z,73.25
2022-12-02T10:35:11.821Z,72.83
2022-12-02T10:40:42.975Z,73.35
2022-12-02T10:46:14.982Z,73.42
2022-12-02T10:51:46.040Z,72.79
2022-12-02T10:57:23.964Z,72.92
2022-12-02T11:02:58.019Z,73.46
2022-12-02T11:08:29.189Z,73.14
2022-12-02T11:14:05.843Z,72.95
2022-12-02T11:19:37.863Z,73.05
2022-12-02T11:25:44.182Z,73.42
2022-12-02T11:31:19.181Z,73.42
2022-12-02T11:37:29.365Z,73.74
2022-12-02T11:43:37.849Z,73.29
2022-12-02T11:49:31.333Z,72.96
2022-12-02T11:55:15.882Z,73.63
2022-12-02T12:01:12.526Z,73.50
2022-12-02T12:06:57.589Z,73.47
2022-12-02T12:12:28.713Z,73.33
2022-12-02T12:18:00.396Z,73.68
2022-12-02T12:23:39.985Z,73.21
2022-12-02T12:29:11.741Z,73.82
2022-12-02T12:34:43.504Z,73.77
2022-12-02T12:40:14.939Z,73.35
2022-12-02T12:45:45.960Z,73.05
2022-12-02T12:51:17.451Z,73.88
2022-12-02T12:56:48.748Z,73.34
2022-12-02T13:02:20.023Z,73.29
2022-12-02T13:07:51.258Z,73.92
2022-12-02T13:13:23.670Z,73.66
2022-12-02T13:18:54.828Z,73.83
2022-12-02T13:24:26.355Z,73.30
2022-12-02T13:29:58.701Z,73.92
2022-12-02T13:35:29.814Z,73.20
2022-12-02T13:41:01.209Z,73.70
2022-12-02T13:46:32.709Z,73.48
2022-12-02T13:52:04.160Z,73.51
2022-12-02T13:57:35.408Z,73.36
2022-12-02T14:03:06.705Z,73.82
2022-12-02T14:08:37.972Z,73.85
2022-12-02T14:14:09.684Z,73.21
2022-12-02T14:19:41.101Z,73.34
2022-12-02T14:25:13.567Z,73.71
2022-12-02T14:30:45.196Z,73.86
2022-12-02T14:36:17.557Z,73.85
2022-12-02T14:41:48.817Z,73.37
2022-12-02T14:47:19.896Z,73.44
2022-12-02T14:52:50.807Z,73.78
2022-12-02T14:58:22.116Z,73.60
2022-12-02T15:03:53.538Z,73.70
2022-12-02T15:09:24.834Z,73.43
2022-12-02T15:15:02.348Z,73.50
2022-12-02T15:20:47.037Z,73.20
2022-12-02T15:26:18.211Z,73.71
2022-12-02T15:31:49.207Z,73.32
2022-12-02T15:37:20.581Z,73.62
2022-12-02T15:42:52.039Z,73.34
2022-12-02T15:48:23.487Z,73.65
2022-12-02T15:53:54.599Z,73.18
2022-12-02T15:59:26.414Z,73.01
2022-12-02T16:04:57.718Z,73.80
2022-12-02T16:10:28.839Z,73.71
2022-12-02T16:16:00.180Z,73.65
2022-12-02T16:21:31.468Z,73.34
2022-12-02T16:27:02.473Z,73.62
2022-12-02T16:32:33.708Z,73.16
2022-12-02T16:38:05.229Z,73.84
2022-12-02T16:43:36.968Z,73.74
2022-12-02T16:49:10.127Z,73.64
2022-12-02T16:54:41.590Z,73.53
2022-12-02T17:00:13.644Z,73.52
2022-12-02T17:05:44.851Z,73.18
2022-12-02T17:11:15.988Z,73.12
2022-12-02T17:16:47.010Z,73.72
2022-12-02T17:22:18.375Z,73.25
2022-12-02T17:27:49.530Z,72.78
2022-12-02T17:33:20.946Z,73.55
2022-12-02T17:38:56.742Z,73.69
2022-12-02T17:44:30.714Z,73.67
2022-12-02T17:50:01.803Z,73.58
2022-12-02T17:55:32.920Z,73.60
2022-12-02T18:01:09.583Z,72.91
2022-12-02T18:06:43.070Z,73.09
2022-12-02T18:12:14.235Z,73.43
2022-12-02T18:17:45.157Z,73.41
2022-12-02T18:23:16.361Z,73.65
2022-12-02T18:28:47.765Z,73.22
2022-12-02T18:34:18.760Z,73.11
2022-12-02T18:39:49.853Z,73.54
2022-12-02T18:45:21.042Z,73.14
2022-12-02T18:50:52.291Z,73.64
2022-12-02T18:56:24.540Z,72.69
2022-12-02T19:01:56.542Z,73.40
2022-12-02T19:07:28.232Z,72.95
2022-12-02T19:12:59.357Z,73.26
2022-12-02T19:18:30.704Z,73.22
2022-12-02T19:24:02.130Z,73.13
2022-12-02T19:29:33.107Z,72.74
2022-12-02T19:35:04.319Z,73.09
2022-12-02T19:40:41.009Z,72.73
2022-12-02T19:46:15.745Z,73.17
2022-12-02T19:51:46.781Z,73.21
2022-12-02T19:57:18.083Z,72.71
2022-12-02T20:02:49.692Z,72.99
2022-12-02T20:08:21.234Z,72.95
2022-12-02T20:13:52.408Z,73.02
2022-12-02T20:19:23.653Z,73.28
2022-12-02T20:24:55.053Z,73.22
2022-12-02T20:30:26.948Z,73.06
2022-12-02T20:35:57.932Z,73.19
2022-12-02T20:41:29.232Z,72.57
2022-12-02T20:47:00.257Z,72.89
2022-12-02T20:52:31.682Z,73.04
2022-12-02T20:58:02.968Z,73.15
2022-12-02T21:03:34.735Z,72.61
2022-12-02T21:09:06.078Z,72.98
2022-12-02T21:14:37.298Z,72.87
2022-12-02T21:20:09.057Z,73.23
2022-12-02T21:25:40.696Z,73.03
2022-12-02T21:31:12.044Z,73.41
2022-12-02T21:36:43.196Z,73.41
2022-12-02T21:42:14.111Z,73.46
2022-12-02T21:47:45.414Z,73.76
2022-12-02T21:53:16.688Z,73.43
2022-12-02T21:58:48.104Z,73.45
2022-12-02T22:04:19.522Z,73.22
2022-12-02T22:09:50.673Z,73.53
2022-12-02T22:15:22.884Z,73.65
2022-12-02T22:20:54.267Z,74.09
2022-12-02T22:26:25.482Z,73.92
2022-12-02T22:31:56.713Z,73.59
2022-12-02T22:37:29.233Z,73.73
2022-12-02T22:43:00.538Z,74.07
2022-12-02T22:48:32.027Z,74.20
2022-12-02T22:54:02.964Z,73.87
2022-12-02T22:59:33.977Z,74.41
2022-12-02T23:05:05.403Z,73.82
2022-12-02T23:10:37.127Z,73.93
2022-12-02T23:16:08.537Z,74.25
2022-12-02T23:21:39.921Z,73.50
2022-12-02T23:27:11.086Z,73.82
2022-12-02T23:32:42.257Z,73.74
2022-12-02T23:38:13.324Z,73.85
2022-12-02T23:43:44.357Z,74.05
2022-12-02T23:49:15.532Z,73.99
2022-12-02T23:54:46.462Z,73.91
